Time;durP1;ratioP1;P1;durP2;ratioP2;P2;SDS_P1;SDS_P2;PMS_P1;PMS_P2;Temp;Humidity;BMP_temperature;BMP_pressure;BME280_temperature;BME280_humidity;BME280_pressure;Samples;Min_cycle;Max_cycle;Signal;HPM_P1;HPM_P2
2022/01/15 00:00:04;;;;;;;;;;;6.50;99.90;;;;;;5073819;28;19927;-77
2022/01/15 00:02:29;;;;;;;;;;;6.50;99.90;;;;;;5073799;28;19927;-77
2022/01/15 00:04:55;;;;;;;;;;;6.40;99.90;;;;;;5073674;28;19924;-77
2022/01/15 00:07:20;;;;;;;;;;;6.50;99.90;;;;;;5073654;28;19928;-76
2022/01/15 00:09:49;;;;;;;;;;;6.50;99.90;;;;;;5073446;28;19919;-77
2022/01/15 00:12:15;;;;;;;;;;;6.40;99.90;;;;;;5073623;28;19920;-77
2022/01/15 00:14:42;;;;;;;;;;;6.40;99.90;;;;;;5073124;28;19924;-76
2022/01/15 00:17:15;;;;;;;;;;;6.40;99.90;;;;;;5073472;28;19920;-77
2022/01/15 00:19:41;;;;;;;;;;;6.40;99.90;;;;;;5056612;28;20390;-76
2022/01/15 00:22:11;;;;;;;;;;;6.30;99.90;;;;;;5073937;28;19926;-77
2022/01/15 00:24:36;;;;;;;;;;;6.30;99.90;;;;;;5072905;28;19920;-76
2022/01/15 00:27:02;;;;;;;;;;;6.20;99.90;;;;;;5073187;28;19973;-76
2022/01/15 00:29:30;;;;;;;;;;;6.20;99.90;;;;;;5091567;28;20355;-76
2022/01/15 00:31:55;;;;;;;;;;;6.20;99.90;;;;;;5073054;28;20281;-76
2022/01/15 00:34:21;;;;;;;;;;;6.20;99.90;;;;;;5056200;28;19920;-76
2022/01/15 00:36:46;;;;;;;;;;;6.20;99.90;;;;;;5073370;28;19920;-76
2022/01/15 00:39:12;;;;;;;;;;;6.20;99.90;;;;;;5074347;28;19924;-77
2022/01/15 00:41:37;;;;;;;;;;;6.20;99.90;;;;;;5074037;28;20417;-76
2022/01/15 00:44:03;;;;;;;;;;;6.20;99.90;;;;;;5073033;28;20295;-76
2022/01/15 00:46:29;;;;;;;;;;;6.10;99.90;;;;;;5073978;28;19962;-77
2022/01/15 00:48:54;;;;;;;;;;;6.20;99.90;;;;;;5073092;28;19966;-77
2022/01/15 00:51:20;;;;;;;;;;;6.10;99.90;;;;;;5053789;28;19927;-77
2022/01/15 00:53:45;;;;;;;;;;;6.20;99.90;;;;;;5086958;28;19979;-77
2022/01/15 00:56:11;;;;;;;;;;;6.20;99.90;;;;;;5053672;28;20264;-77
2022/01/15 00:58:36;;;;;;;;;;;6.20;99.90;;;;;;5054045;28;20335;-76
2022/01/15 01:01:02;;;;;;;;;;;6.20;99.90;;;;;;5053810;28;19920;-76
2022/01/15 01:03:27;;;;;;;;;;;6.20;99.90;;;;;;5087025;28;19920;-77
2022/01/15 01:05:53;;;;;;;;;;;6.20;99.90;;;;;;5087232;28;19943;-76
2022/01/15 01:08:18;;;;;;;;;;;6.20;99.90;;;;;;5036714;28;20386;-77
2022/01/15 01:13:39;;;;;;;;;;;6.20;99.90;;;;;;5086705;28;19924;-77
2022/01/15 01:24:15;;;;;;;;;;;6.20;99.90;;;;;;5012860;28;19920;-77
2022/01/15 01:26:49;;;;;;;;;;;6.20;99.90;;;;;;5087175;28;20392;-77
2022/01/15 01:30:08;;;;;;;;;;;6.20;99.90;;;;;;5036219;28;19965;-77
2022/01/15 01:32:25;;;;;;;;;;;6.20;99.90;;;;;;5047504;28;20010;-77
2022/01/15 01:34:50;;;;;;;;;;;6.20;99.90;;;;;;5086847;28;20320;-77
2022/01/15 01:37:24;;;;;;;;;;;6.20;99.90;;;;;;5052829;28;19921;-77
2022/01/15 01:39:54;;;;;;;;;;;6.20;99.90;;;;;;5052922;28;19924;-77
2022/01/15 01:45:10;;;;;;;;;;;6.20;99.90;;;;;;5086307;28;19920;-77
2022/01/15 01:47:39;;;;;;;;;;;6.20;99.90;;;;;;5086513;28;19921;-77
2022/01/15 01:50:16;;;;;;;;;;;6.10;99.90;;;;;;5052286;28;19967;-77
2022/01/15 01:52:43;;;;;;;;;;;6.10;99.90;;;;;;5066229;28;19920;-77
2022/01/15 01:55:09;;;;;;;;;;;6.10;99.90;;;;;;5072492;28;19924;-76
2022/01/15 01:57:35;;;;;;;;;;;6.10;99.90;;;;;;5072961;28;20533;-76
2022/01/15 02:00:01;;;;;;;;;;;6.10;99.90;;;;;;5072386;28;20393;-76
2022/01/15 02:02:26;;;;;;;;;;;6.10;99.90;;;;;;5072626;28;19923;-76
2022/01/15 02:04:55;;;;;;;;;;;6.10;99.90;;;;;;5072596;28;20007;-77
2022/01/15 02:07:21;;;;;;;;;;;6.10;99.90;;;;;;5072651;28;20373;-76
2022/01/15 02:09:47;;;;;;;;;;;6.00;99.90;;;;;;5072380;28;19920;-76
2022/01/15 02:12:12;;;;;;;;;;;6.00;99.90;;;;;;5072139;28;19959;-76
2022/01/15 02:14:38;;;;;;;;;;;6.00;99.90;;;;;;5071915;28;19977;-76
2022/01/15 02:17:03;;;;;;;;;;;6.00;99.90;;;;;;5072526;28;19998;-76
2022/01/15 02:19:30;;;;;;;;;;;6.00;99.90;;;;;;5072327;28;20298;-76
2022/01/15 02:24:39;;;;;;;;;;;6.00;99.90;;;;;;5072348;28;20285;-76
2022/01/15 02:27:05;;;;;;;;;;;6.00;99.90;;;;;;5071945;28;19920;-76
2022/01/15 02:29:30;;;;;;;;;;;6.00;99.90;;;;;;5072383;28;19920;-76
2022/01/15 02:31:56;;;;;;;;;;;5.90;99.90;;;;;;5072063;28;20294;-77
2022/01/15 02:34:21;;;;;;;;;;;5.90;99.90;;;;;;5072007;28;19927;-77
2022/01/15 02:36:47;;;;;;;;;;;5.90;99.90;;;;;;5072065;28;19963;-77
2022/01/15 02:39:12;;;;;;;;;;;5.90;99.90;;;;;;5054360;28;19920;-76
2022/01/15 02:41:38;;;;;;;;;;;5.90;99.90;;;;;;5071032;28;19927;-76
2022/01/15 02:44:16;;;;;;;;;;;5.80;99.90;;;;;;5070962;28;19966;-77
2022/01/15 02:49:13;;;;;;;;;;;5.90;99.90;;;;;;5071203;28;20007;-77
2022/01/15 02:51:38;;;;;;;;;;;5.90;99.90;;;;;;5066167;28;20011;-76
2022/01/15 02:54:04;;;;;;;;;;;5.80;99.90;;;;;;5050815;28;20359;-77
2022/01/15 02:56:34;;;;;;;;;;;5.90;99.90;;;;;;5084413;28;19963;-77
2022/01/15 02:59:01;;;;;;;;;;;5.80;99.90;;;;;;5084756;28;19947;-77
2022/01/15 03:01:26;;;;;;;;;;;5.90;99.90;;;;;;5084421;28;20015;-76
2022/01/15 03:03:52;;;;;;;;;;;5.80;99.90;;;;;;5084362;28;20010;-77
2022/01/15 03:06:18;;;;;;;;;;;5.80;99.90;;;;;;5050651;28;20443;-76
2022/01/15 03:08:44;;;;;;;;;;;5.80;99.90;;;;;;5084551;28;19946;-76
2022/01/15 03:11:10;;;;;;;;;;;5.80;99.90;;;;;;5031080;28;20394;-77
2022/01/15 03:13:36;;;;;;;;;;;5.80;99.90;;;;;;5052486;28;19921;-77
2022/01/15 03:16:02;;;;;;;;;;;5.80;99.90;;;;;;5035785;28;19924;-77
2022/01/15 03:18:28;;;;;;;;;;;5.80;99.90;;;;;;5052772;28;20102;-77
2022/01/15 03:20:54;;;;;;;;;;;5.80;99.90;;;;;;5058018;28;20477;-76
2022/01/15 03:23:19;;;;;;;;;;;5.80;99.90;;;;;;5051915;28;19985;-76
2022/01/15 03:25:45;;;;;;;;;;;5.80;99.90;;;;;;5035380;28;19925;-76
2022/01/15 03:28:11;;;;;;;;;;;5.80;99.90;;;;;;5052385;28;20043;-75
2022/01/15 03:30:37;;;;;;;;;;;5.80;99.90;;;;;;5062537;28;20298;-76
2022/01/15 03:33:02;;;;;;;;;;;5.80;99.90;;;;;;5072067;28;19927;-76
2022/01/15 03:35:28;;;;;;;;;;;5.80;99.90;;;;;;5071833;28;20286;-76
2022/01/15 03:37:53;;;;;;;;;;;5.80;99.90;;;;;;5071584;28;19927;-75
2022/01/15 03:40:19;;;;;;;;;;;5.80;99.90;;;;;;5035347;28;19927;-76
2022/01/15 03:42:44;;;;;;;;;;;5.80;99.90;;;;;;5051541;28;19924;-76
2022/01/15 03:45:11;;;;;;;;;;;5.80;99.90;;;;;;5052068;28;19925;-76
2022/01/15 03:47:39;;;;;;;;;;;5.80;99.90;;;;;;5052200;28;20298;-76
2022/01/15 03:50:05;;;;;;;;;;;5.80;99.90;;;;;;5051627;28;20011;-77
2022/01/15 03:52:30;;;;;;;;;;;5.80;99.90;;;;;;5035081;28;20015;-76
2022/01/15 03:54:56;;;;;;;;;;;5.80;99.90;;;;;;5051833;28;20405;-76
2022/01/15 03:57:22;;;;;;;;;;;5.80;99.90;;;;;;5054507;28;19921;-77
2022/01/15 03:59:47;;;;;;;;;;;5.80;99.90;;;;;;5071107;28;20380;-76
2022/01/15 04:02:13;;;;;;;;;;;5.70;99.90;;;;;;5071988;28;20300;-76
2022/01/15 04:04:38;;;;;;;;;;;5.70;99.90;;;;;;5054940;28;19924;-76
2022/01/15 04:07:04;;;;;;;;;;;5.70;99.90;;;;;;5071459;28;19974;-76
2022/01/15 04:09:29;;;;;;;;;;;5.70;99.90;;;;;;5071159;28;19921;-77
2022/01/15 04:11:55;;;;;;;;;;;5.80;99.90;;;;;;5054652;28;19920;-76
2022/01/15 04:14:20;;;;;;;;;;;5.70;99.90;;;;;;5071261;28;19927;-76
2022/01/15 04:16:46;;;;;;;;;;;5.70;99.90;;;;;;5071134;28;19920;-76
2022/01/15 04:19:11;;;;;;;;;;;5.70;99.90;;;;;;5071441;28;20329;-76
2022/01/15 04:21:37;;;;;;;;;;;5.70;99.90;;;;;;5054619;28;19950;-76
2022/01/15 04:24:03;;;;;;;;;;;5.80;99.90;;;;;;5054082;28;19980;-76
2022/01/15 04:26:29;;;;;;;;;;;5.80;99.90;;;;;;5071341;28;19927;-77
2022/01/15 04:29:01;;;;;;;;;;;5.80;99.90;;;;;;5071342;28;19921;-76
2022/01/15 04:31:27;;;;;;;;;;;5.80;99.90;;;;;;5051778;28;20298;-76
2022/01/15 04:33:52;;;;;;;;;;;5.80;99.90;;;;;;5050670;28;19921;-76
2022/01/15 04:36:18;;;;;;;;;;;5.80;99.90;;;;;;5050959;28;19921;-77
2022/01/15 04:38:44;;;;;;;;;;;5.80;99.90;;;;;;5051404;28;19944;-76
2022/01/15 04:41:10;;;;;;;;;;;5.80;99.90;;;;;;5051322;28;19921;-76
2022/01/15 04:43:36;;;;;;;;;;;5.80;99.90;;;;;;5033666;28;20276;-76
2022/01/15 04:46:02;;;;;;;;;;;5.80;99.90;;;;;;5050832;28;19933;-76
2022/01/15 04:48:27;;;;;;;;;;;5.80;99.90;;;;;;5050929;28;19971;-76
2022/01/15 04:50:53;;;;;;;;;;;5.70;99.90;;;;;;5050879;28;19925;-76
2022/01/15 04:53:18;;;;;;;;;;;5.80;99.90;;;;;;5050829;28;19947;-76
2022/01/15 04:55:44;;;;;;;;;;;5.70;99.90;;;;;;5050063;28;19950;-76
2022/01/15 04:58:09;;;;;;;;;;;5.70;99.90;;;;;;5050393;28;20015;-76
2022/01/15 05:00:35;;;;;;;;;;;5.70;99.90;;;;;;5050664;28;19946;-76
2022/01/15 05:03:01;;;;;;;;;;;5.70;99.90;;;;;;5050572;28;20357;-75
2022/01/15 05:05:28;;;;;;;;;;;5.80;99.90;;;;;;5049882;28;20011;-76
2022/01/15 05:07:54;;;;;;;;;;;5.80;99.90;;;;;;5033125;28;19921;-76
2022/01/15 05:10:23;;;;;;;;;;;5.80;99.90;;;;;;5033119;28;20070;-77
2022/01/15 05:12:49;;;;;;;;;;;5.80;99.90;;;;;;5033651;28;19921;-76
2022/01/15 05:15:16;;;;;;;;;;;5.80;99.90;;;;;;5050004;28;19920;-76
2022/01/15 05:17:42;;;;;;;;;;;5.70;99.90;;;;;;5049958;28;19920;-76
2022/01/15 05:20:08;;;;;;;;;;;5.80;99.90;;;;;;5050411;28;19924;-76
2022/01/15 05:22:34;;;;;;;;;;;5.80;99.90;;;;;;5033106;28;20016;-76
2022/01/15 05:25:00;;;;;;;;;;;5.80;99.90;;;;;;5050252;28;20011;-76
2022/01/15 05:27:26;;;;;;;;;;;5.80;99.90;;;;;;5033327;28;19929;-76
2022/01/15 05:29:52;;;;;;;;;;;5.80;99.90;;;;;;5055830;28;19936;-76
2022/01/15 05:32:23;;;;;;;;;;;5.80;99.90;;;;;;5069270;28;19927;-76
2022/01/15 05:34:51;;;;;;;;;;;5.80;99.90;;;;;;5069141;28;19946;-76
2022/01/15 05:37:17;;;;;;;;;;;5.80;99.90;;;;;;5069660;28;20479;-76
2022/01/15 05:39:42;;;;;;;;;;;5.80;99.90;;;;;;5069811;28;19928;-76
2022/01/15 05:42:08;;;;;;;;;;;5.80;99.90;;;;;;5069618;28;19950;-76
2022/01/15 05:44:34;;;;;;;;;;;5.80;99.90;;;;;;5069339;28;19969;-77
2022/01/15 05:47:00;;;;;;;;;;;5.80;99.90;;;;;;5069085;28;20387;-76
2022/01/15 05:49:26;;;;;;;;;;;5.80;99.90;;;;;;5069655;28;19950;-76
2022/01/15 05:51:51;;;;;;;;;;;5.80;99.90;;;;;;5069632;28;19974;-76
2022/01/15 05:54:17;;;;;;;;;;;5.80;99.90;;;;;;5052609;28;19924;-77
2022/01/15 05:56:43;;;;;;;;;;;5.80;99.90;;;;;;5069694;28;20077;-76
2022/01/15 05:59:08;;;;;;;;;;;5.70;99.90;;;;;;5069484;28;20306;-76
2022/01/15 06:01:35;;;;;;;;;;;5.70;99.90;;;;;;5069248;28;20333;-76
2022/01/15 06:04:00;;;;;;;;;;;5.70;99.90;;;;;;5068903;28;19960;-76
2022/01/15 06:06:26;;;;;;;;;;;5.70;99.90;;;;;;5068879;28;20354;-77
2022/01/15 06:08:51;;;;;;;;;;;5.80;99.90;;;;;;5068393;28;20299;-76
2022/01/15 06:11:18;;;;;;;;;;;5.70;99.90;;;;;;5068061;28;20390;-76
2022/01/15 06:13:44;;;;;;;;;;;5.70;99.90;;;;;;5051183;28;19925;-76
2022/01/15 06:16:09;;;;;;;;;;;5.70;99.90;;;;;;5068161;28;19975;-76
2022/01/15 06:18:35;;;;;;;;;;;5.80;99.90;;;;;;5067866;28;20395;-76
2022/01/15 06:21:00;;;;;;;;;;;5.70;99.90;;;;;;5068326;28;19920;-76
2022/01/15 06:23:26;;;;;;;;;;;5.70;99.90;;;;;;5068171;28;19929;-77
2022/01/15 06:25:51;;;;;;;;;;;5.70;99.90;;;;;;5067461;28;19924;-76
2022/01/15 06:28:17;;;;;;;;;;;5.70;99.90;;;;;;5051142;28;19978;-76
2022/01/15 06:30:42;;;;;;;;;;;5.70;99.90;;;;;;5054626;28;19920;-76
2022/01/15 06:33:08;;;;;;;;;;;5.70;99.90;;;;;;5047750;28;19928;-76
2022/01/15 06:35:33;;;;;;;;;;;5.70;99.90;;;;;;5047570;28;20295;-77
2022/01/15 06:37:59;;;;;;;;;;;5.70;99.90;;;;;;5048016;28;19925;-76
2022/01/15 06:40:24;;;;;;;;;;;5.70;99.90;;;;;;5047936;28;19924;-76
2022/01/15 06:42:50;;;;;;;;;;;5.80;99.90;;;;;;5047566;28;19920;-76
2022/01/15 06:45:15;;;;;;;;;;;5.70;99.90;;;;;;5047962;28;20344;-76
2022/01/15 06:47:41;;;;;;;;;;;5.70;99.90;;;;;;5081157;28;19921;-76
2022/01/15 06:50:08;;;;;;;;;;;5.70;99.90;;;;;;5047799;28;19921;-76
2022/01/15 06:52:34;;;;;;;;;;;5.70;99.90;;;;;;5064569;28;20290;-77
2022/01/15 06:55:00;;;;;;;;;;;5.80;99.90;;;;;;5081265;28;19924;-76
2022/01/15 06:57:26;;;;;;;;;;;5.70;99.90;;;;;;5081093;28;19935;-76
2022/01/15 06:59:52;;;;;;;;;;;5.70;99.90;;;;;;5047618;28;19965;-76
2022/01/15 07:02:18;;;;;;;;;;;5.80;99.90;;;;;;5081202;28;19921;-76
2022/01/15 07:04:43;;;;;;;;;;;5.70;99.90;;;;;;5081134;28;20319;-76
2022/01/15 07:07:09;;;;;;;;;;;5.70;99.90;;;;;;5080856;28;19920;-76
2022/01/15 07:09:35;;;;;;;;;;;5.70;99.90;;;;;;5046943;28;19928;-77
2022/01/15 07:12:01;;;;;;;;;;;5.70;99.90;;;;;;5047522;28;19971;-77
2022/01/15 07:14:26;;;;;;;;;;;5.70;99.90;;;;;;5063890;28;19976;-76
2022/01/15 07:16:52;;;;;;;;;;;5.70;99.90;;;;;;5031220;28;19928;-76
2022/01/15 07:19:17;;;;;;;;;;;5.70;99.90;;;;;;5030817;28;19928;-76
2022/01/15 07:21:43;;;;;;;;;;;5.70;99.90;;;;;;5046967;28;19928;-76
2022/01/15 07:24:09;;;;;;;;;;;5.70;99.90;;;;;;5047695;28;19932;-76
2022/01/15 07:26:34;;;;;;;;;;;5.70;99.90;;;;;;5080908;28;20330;-77
2022/01/15 07:29:00;;;;;;;;;;;5.70;99.90;;;;;;5047547;28;20011;-76
2022/01/15 07:31:25;;;;;;;;;;;5.70;99.90;;;;;;5047219;28;19970;-76
2022/01/15 07:33:51;;;;;;;;;;;5.70;99.90;;;;;;5046863;28;19932;-77
2022/01/15 07:36:17;;;;;;;;;;;5.70;99.90;;;;;;5047234;28;20929;-76
2022/01/15 07:38:43;;;;;;;;;;;5.70;99.90;;;;;;5047167;28;19921;-77
2022/01/15 07:41:12;;;;;;;;;;;5.70;99.90;;;;;;5030719;28;19924;-77
2022/01/15 07:43:38;;;;;;;;;;;5.70;99.90;;;;;;5029927;28;19928;-76
2022/01/15 07:46:04;;;;;;;;;;;5.70;99.90;;;;;;5047242;28;19921;-77
2022/01/15 07:48:29;;;;;;;;;;;5.70;99.90;;;;;;5047027;28;19928;-76
2022/01/15 07:50:55;;;;;;;;;;;5.70;99.90;;;;;;5047028;28;19920;-76
2022/01/15 07:53:21;;;;;;;;;;;5.70;99.90;;;;;;5047001;28;19928;-76
2022/01/15 07:55:46;;;;;;;;;;;5.70;99.90;;;;;;5046986;28;19927;-77
2022/01/15 07:58:12;;;;;;;;;;;5.70;99.90;;;;;;5048550;28;19921;-76
2022/01/15 08:00:37;;;;;;;;;;;5.70;99.90;;;;;;5050666;28;20334;-77
2022/01/15 08:03:03;;;;;;;;;;;5.70;99.90;;;;;;5034093;28;19932;-76
2022/01/15 08:05:28;;;;;;;;;;;5.70;99.90;;;;;;5033510;28;19925;-76
2022/01/15 08:07:54;;;;;;;;;;;5.70;99.90;;;;;;5035753;28;19920;-76
2022/01/15 08:10:19;;;;;;;;;;;5.70;99.90;;;;;;5068859;28;19925;-77
2022/01/15 08:12:47;;;;;;;;;;;5.70;99.90;;;;;;5069291;28;19977;-78
2022/01/15 08:15:13;;;;;;;;;;;5.70;99.90;;;;;;5068966;28;19927;-77
2022/01/15 08:17:38;;;;;;;;;;;5.70;99.90;;;;;;5052561;28;19928;-78
2022/01/15 08:20:04;;;;;;;;;;;5.70;99.90;;;;;;5064768;28;19924;-77
2022/01/15 08:22:30;;;;;;;;;;;5.80;99.90;;;;;;5052925;28;20259;-77
2022/01/15 08:24:55;;;;;;;;;;;5.80;99.90;;;;;;5068930;28;19921;-77
2022/01/15 08:27:21;;;;;;;;;;;5.80;99.90;;;;;;5065642;28;19920;-77
2022/01/15 08:29:46;;;;;;;;;;;5.80;99.90;;;;;;5069413;28;20450;-77
2022/01/15 08:32:12;;;;;;;;;;;5.80;99.90;;;;;;5068880;28;19924;-77
2022/01/15 08:34:38;;;;;;;;;;;5.80;99.90;;;;;;5070198;28;20275;-77
2022/01/15 08:37:04;;;;;;;;;;;5.80;99.90;;;;;;5083231;28;19978;-77
2022/01/15 08:39:30;;;;;;;;;;;5.80;99.90;;;;;;5068883;28;19921;-78
2022/01/15 08:41:55;;;;;;;;;;;5.80;99.90;;;;;;5053365;28;19966;-77
2022/01/15 08:44:23;;;;;;;;;;;5.80;99.90;;;;;;5069150;28;20359;-77
2022/01/15 08:46:50;;;;;;;;;;;5.80;99.90;;;;;;5069463;28;19927;-77
2022/01/15 08:49:16;;;;;;;;;;;5.80;99.90;;;;;;5069228;28;20342;-78
2022/01/15 08:51:41;;;;;;;;;;;5.80;99.90;;;;;;5071053;28;19928;-78
2022/01/15 08:54:07;;;;;;;;;;;5.80;99.90;;;;;;5069287;28;20438;-78
2022/01/15 08:56:33;;;;;;;;;;;5.80;99.90;;;;;;5065358;28;20011;-77
2022/01/15 08:58:58;;;;;;;;;;;5.80;99.90;;;;;;5069223;28;20366;-78
2022/01/15 09:01:24;;;;;;;;;;;5.80;99.90;;;;;;5069393;28;20420;-78
2022/01/15 09:03:50;;;;;;;;;;;5.90;99.90;;;;;;5070764;28;19920;-78
2022/01/15 09:06:15;;;;;;;;;;;5.80;99.90;;;;;;5059824;28;19978;-76
2022/01/15 09:08:42;;;;;;;;;;;5.90;99.90;;;;;;5049360;28;19920;-74
2022/01/15 09:11:08;;;;;;;;;;;5.90;99.90;;;;;;5066679;28;19920;-74
2022/01/15 09:13:33;;;;;;;;;;;5.90;99.90;;;;;;5053420;28;20345;-75
2022/01/15 09:15:59;;;;;;;;;;;5.90;99.90;;;;;;5063429;28;19921;-76
2022/01/15 09:18:25;;;;;;;;;;;5.90;99.90;;;;;;5039095;28;19982;-75
2022/01/15 09:20:50;;;;;;;;;;;6.00;99.90;;;;;;5056441;28;19971;-75
2022/01/15 09:23:17;;;;;;;;;;;5.90;99.90;;;;;;5070034;28;19983;-75
2022/01/15 09:25:42;;;;;;;;;;;5.90;99.90;;;;;;5069343;28;20046;-75
2022/01/15 09:30:52;;;;;;;;;;;6.00;99.90;;;;;;5055502;28;19920;-75
2022/01/15 09:33:18;;;;;;;;;;;6.00;99.90;;;;;;5062129;28;19920;-76
2022/01/15 09:35:43;;;;;;;;;;;6.00;99.90;;;;;;5060469;28;20345;-76
2022/01/15 09:38:09;;;;;;;;;;;6.00;99.90;;;;;;5049520;28;19942;-76
2022/01/15 09:40:35;;;;;;;;;;;6.00;99.90;;;;;;5049639;28;20264;-74
2022/01/15 09:43:01;;;;;;;;;;;6.00;99.90;;;;;;5053316;28;20378;-74
2022/01/15 09:45:27;;;;;;;;;;;6.00;99.90;;;;;;5049441;28;19924;-74
2022/01/15 09:47:57;;;;;;;;;;;6.00;99.90;;;;;;5056197;28;19927;-74
2022/01/15 09:50:24;;;;;;;;;;;6.00;99.90;;;;;;5068039;28;19920;-74
2022/01/15 09:52:50;;;;;;;;;;;6.10;99.90;;;;;;5067567;28;19920;-74
2022/01/15 09:55:15;;;;;;;;;;;6.10;99.90;;;;;;5067952;28;19979;-74
2022/01/15 09:57:41;;;;;;;;;;;6.10;99.90;;;;;;5067938;28;20307;-74
2022/01/15 10:00:08;;;;;;;;;;;6.00;99.90;;;;;;5067963;28;19927;-74
2022/01/15 10:02:36;;;;;;;;;;;6.10;99.90;;;;;;5058832;28;19956;-74
2022/01/15 10:05:01;;;;;;;;;;;6.00;99.90;;;;;;5064077;28;19920;-75
2022/01/15 10:07:28;;;;;;;;;;;6.10;99.90;;;;;;5048055;28;20406;-74
2022/01/15 10:09:54;;;;;;;;;;;6.10;99.90;;;;;;5055289;28;19927;-74
2022/01/15 10:12:28;;;;;;;;;;;6.10;99.90;;;;;;5050638;28;19931;-75
2022/01/15 10:14:58;;;;;;;;;;;6.20;99.90;;;;;;5051220;28;19924;-75
2022/01/15 10:17:25;;;;;;;;;;;6.20;99.90;;;;;;5068221;28;19920;-75
2022/01/15 10:19:51;;;;;;;;;;;6.20;99.90;;;;;;5051031;28;19921;-74
2022/01/15 10:22:21;;;;;;;;;;;6.20;99.90;;;;;;5067290;28;19943;-74
2022/01/15 10:25:14;;;;;;;;;;;6.20;99.90;;;;;;5067687;28;19925;-74
2022/01/15 10:27:44;;;;;;;;;;;6.20;99.90;;;;;;5067796;28;20398;-74
2022/01/15 10:30:11;;;;;;;;;;;6.20;99.90;;;;;;5059111;28;19924;-74
2022/01/15 10:33:00;;;;;;;;;;;6.20;99.90;;;;;;5067017;28;20009;-75
2022/01/15 10:35:27;;;;;;;;;;;6.20;99.90;;;;;;5058556;28;19931;-75
2022/01/15 10:37:57;;;;;;;;;;;6.20;99.90;;;;;;5067322;28;20384;-75
2022/01/15 10:40:25;;;;;;;;;;;6.20;99.90;;;;;;5068789;28;20015;-75
2022/01/15 10:42:55;;;;;;;;;;;6.20;99.90;;;;;;5067173;28;19978;-73
2022/01/15 10:45:21;;;;;;;;;;;6.30;99.90;;;;;;5068000;28;19995;-73
2022/01/15 10:47:49;;;;;;;;;;;6.30;99.90;;;;;;5056145;28;19921;-73
2022/01/15 10:50:25;;;;;;;;;;;6.30;99.90;;;;;;5048133;28;20019;-74
2022/01/15 10:52:51;;;;;;;;;;;6.30;99.90;;;;;;5053479;28;19985;-74
2022/01/15 10:55:23;;;;;;;;;;;6.30;99.90;;;;;;5054337;28;19928;-74
2022/01/15 10:57:54;;;;;;;;;;;6.40;99.90;;;;;;5067512;28;19952;-74
2022/01/15 11:00:24;;;;;;;;;;;6.40;99.90;;;;;;5063812;28;20647;-74
2022/01/15 11:03:00;;;;;;;;;;;6.40;99.90;;;;;;5047777;28;19931;-75
2022/01/15 11:05:29;;;;;;;;;;;6.40;99.90;;;;;;5058209;28;19924;-74
2022/01/15 11:08:05;;;;;;;;;;;6.30;99.90;;;;;;5068243;28;20459;-74
2022/01/15 11:10:57;;;;;;;;;;;6.30;99.90;;;;;;5067742;28;19920;-74
2022/01/15 11:13:33;;;;;;;;;;;6.30;99.90;;;;;;5017655;28;19928;-75
2022/01/15 11:16:05;;;;;;;;;;;6.30;99.90;;;;;;5079865;28;19928;-74
2022/01/15 11:18:30;;;;;;;;;;;6.40;99.90;;;;;;5081111;28;19928;-75
2022/01/15 11:20:57;;;;;;;;;;;6.40;99.90;;;;;;5053002;28;19929;-74
2022/01/15 11:23:24;;;;;;;;;;;6.30;99.90;;;;;;5081422;28;19931;-74
2022/01/15 11:25:51;;;;;;;;;;;6.30;99.90;;;;;;5031045;28;19928;-75
2022/01/15 11:28:20;;;;;;;;;;;6.30;99.90;;;;;;5047700;28;19928;-75
2022/01/15 11:30:47;;;;;;;;;;;6.40;99.90;;;;;;5081143;28;20722;-76
2022/01/15 11:33:13;;;;;;;;;;;6.40;99.90;;;;;;5062408;28;19948;-76
2022/01/15 11:35:44;;;;;;;;;;;6.40;99.90;;;;;;5037529;28;19925;-75
2022/01/15 11:38:10;;;;;;;;;;;6.40;99.90;;;;;;5051876;28;20150;-75
2022/01/15 11:40:40;;;;;;;;;;;6.40;99.90;;;;;;5085240;28;19921;-75
2022/01/15 11:43:35;;;;;;;;;;;6.30;99.90;;;;;;5085248;28;19928;-75
2022/01/15 11:46:05;;;;;;;;;;;6.40;99.90;;;;;;5038404;28;19920;-76
2022/01/15 11:48:35;;;;;;;;;;;6.30;99.90;;;;;;5085132;28;19920;-76
2022/01/15 11:51:13;;;;;;;;;;;6.40;99.90;;;;;;5051635;28;20349;-76
2022/01/15 11:53:48;;;;;;;;;;;6.40;99.90;;;;;;5058661;28;19920;-76
2022/01/15 11:56:15;;;;;;;;;;;6.30;99.90;;;;;;5084424;28;20098;-75
2022/01/15 11:58:40;;;;;;;;;;;6.30;99.90;;;;;;5067881;28;19935;-75
2022/01/15 12:01:06;;;;;;;;;;;6.40;99.90;;;;;;5054494;28;19924;-75
2022/01/15 12:03:38;;;;;;;;;;;6.40;99.90;;;;;;5027083;28;19979;-75
2022/01/15 12:06:03;;;;;;;;;;;6.40;99.90;;;;;;5027472;28;19920;-75
2022/01/15 12:08:30;;;;;;;;;;;6.30;99.90;;;;;;5057805;28;19927;-75
2022/01/15 12:10:56;;;;;;;;;;;6.40;99.90;;;;;;5066641;28;19982;-75
2022/01/15 12:13:29;;;;;;;;;;;6.30;99.90;;;;;;5072038;28;20378;-76
2022/01/15 12:16:15;;;;;;;;;;;6.30;99.90;;;;;;5070655;28;20640;-77
2022/01/15 12:18:45;;;;;;;;;;;6.30;99.90;;;;;;5070893;28;20014;-76
2022/01/15 12:21:11;;;;;;;;;;;6.30;99.90;;;;;;5070921;28;19971;-75
2022/01/15 12:23:37;;;;;;;;;;;6.30;99.90;;;;;;5070915;28;20343;-75
2022/01/15 12:26:08;;;;;;;;;;;6.30;99.90;;;;;;5070513;28;19982;-75
2022/01/15 12:28:33;;;;;;;;;;;6.30;99.90;;;;;;5087432;28;19921;-75
2022/01/15 12:30:59;;;;;;;;;;;6.20;99.90;;;;;;5058944;28;20357;-75
2022/01/15 12:33:24;;;;;;;;;;;6.30;99.90;;;;;;5070322;28;19921;-75
2022/01/15 12:35:52;;;;;;;;;;;6.30;99.90;;;;;;5070134;28;19924;-75
2022/01/15 12:38:21;;;;;;;;;;;6.30;99.90;;;;;;5069444;28;19921;-75
2022/01/15 12:40:49;;;;;;;;;;;6.30;99.90;;;;;;5069160;28;19935;-76
2022/01/15 12:43:22;;;;;;;;;;;6.20;99.90;;;;;;5064677;28;19924;-75
2022/01/15 12:45:49;;;;;;;;;;;6.20;99.90;;;;;;5070305;28;19926;-76
2022/01/15 12:48:16;;;;;;;;;;;6.30;99.90;;;;;;5070226;28;19920;-76
2022/01/15 12:50:50;;;;;;;;;;;6.20;99.90;;;;;;5069681;28;19925;-76
2022/01/15 12:53:15;;;;;;;;;;;6.20;99.90;;;;;;5068843;28;19924;-75
2022/01/15 12:55:41;;;;;;;;;;;6.10;99.90;;;;;;5069141;28;19952;-75
2022/01/15 12:58:08;;;;;;;;;;;6.10;99.90;;;;;;5069639;28;19951;-76
2022/01/15 13:00:35;;;;;;;;;;;6.10;99.90;;;;;;5070466;28;19964;-76
2022/01/15 13:03:06;;;;;;;;;;;6.10;99.90;;;;;;5069509;28;19927;-75
2022/01/15 13:05:32;;;;;;;;;;;6.00;99.90;;;;;;5069707;28;19927;-76
2022/01/15 13:08:03;;;;;;;;;;;6.00;99.90;;;;;;5069874;28;19924;-76
2022/01/15 13:10:48;;;;;;;;;;;6.00;99.90;;;;;;5069440;28;19927;-76
2022/01/15 13:13:20;;;;;;;;;;;6.00;99.90;;;;;;5013779;28;19921;-75
2022/01/15 13:15:45;;;;;;;;;;;6.00;99.90;;;;;;5066249;28;20434;-75
2022/01/15 13:18:16;;;;;;;;;;;6.00;99.90;;;;;;5049829;28;20011;-75
2022/01/15 13:20:41;;;;;;;;;;;6.00;99.90;;;;;;5065335;28;19920;-75
2022/01/15 13:23:07;;;;;;;;;;;5.90;99.90;;;;;;5069948;28;20385;-75
2022/01/15 13:25:33;;;;;;;;;;;5.90;99.90;;;;;;5046732;28;19982;-75
2022/01/15 13:27:58;;;;;;;;;;;5.90;99.90;;;;;;5051669;28;19920;-76
2022/01/15 13:30:25;;;;;;;;;;;5.90;99.90;;;;;;5056320;28;19933;-76
2022/01/15 13:32:55;;;;;;;;;;;5.90;99.90;;;;;;5065511;28;19920;-75
2022/01/15 13:35:23;;;;;;;;;;;5.90;99.90;;;;;;5067283;28;19924;-73
2022/01/15 13:38:00;;;;;;;;;;;5.90;99.90;;;;;;5069127;28;20344;-74
2022/01/15 13:40:26;;;;;;;;;;;5.90;99.90;;;;;;5070006;28;19927;-74
2022/01/15 13:42:52;;;;;;;;;;;5.90;99.90;;;;;;5064261;28;19920;-74
2022/01/15 13:45:17;;;;;;;;;;;5.90;99.90;;;;;;5050963;28;19928;-75
2022/01/15 13:47:43;;;;;;;;;;;5.90;99.90;;;;;;5049506;28;20314;-74
2022/01/15 13:53:07;;;;;;;;;;;5.80;99.90;;;;;;5050439;28;19927;-75
2022/01/15 13:55:33;;;;;;;;;;;5.80;99.90;;;;;;5049092;28;19921;-75
2022/01/15 13:58:10;;;;;;;;;;;5.80;99.90;;;;;;5049443;28;19928;-75
2022/01/15 14:00:36;;;;;;;;;;;5.80;99.90;;;;;;5049217;28;19921;-75
2022/01/15 14:03:05;;;;;;;;;;;5.80;99.90;;;;;;5065514;28;20305;-75
2022/01/15 14:05:31;;;;;;;;;;;5.70;99.90;;;;;;5069302;28;19990;-74
2022/01/15 14:07:57;;;;;;;;;;;5.70;99.90;;;;;;5069397;28;20445;-75
2022/01/15 14:10:25;;;;;;;;;;;5.60;99.90;;;;;;5067146;28;19920;-76
2022/01/15 14:12:58;;;;;;;;;;;5.60;99.90;;;;;;5052143;28;19927;-75
2022/01/15 14:15:44;;;;;;;;;;;5.60;99.90;;;;;;5069116;28;20290;-76
2022/01/15 14:18:15;;;;;;;;;;;5.60;99.90;;;;;;5052964;28;19968;-76
2022/01/15 14:23:29;;;;;;;;;;;5.60;99.90;;;;;;5048503;28;19920;-76
2022/01/15 14:26:24;;;;;;;38.95;30.95;;;5.60;99.90;;;;;;5125765;27;20886;-75
2022/01/15 14:28:51;;;;;;;40.83;31.85;;;5.60;99.90;;;;;;5083888;28;20496;-75
2022/01/15 14:31:21;;;;;;;41.65;34.20;;;5.60;99.90;;;;;;5052972;28;20399;-76
2022/01/15 14:33:47;;;;;;;36.42;31.35;;;5.60;99.90;;;;;;5067618;28;20734;-75
2022/01/15 14:36:13;;;;;;;35.20;30.40;;;5.60;99.90;;;;;;5069535;28;20407;-75
2022/01/15 14:38:38;;;;;;;34.80;29.57;;;5.60;99.90;;;;;;5086659;28;20408;-75
2022/01/15 14:41:04;;;;;;;32.72;28.55;;;5.50;99.90;;;;;;5070741;28;20401;-75
2022/01/15 14:43:30;;;;;;;30.25;26.42;;;5.50;99.90;;;;;;5078402;28;20414;-74
2022/01/15 14:45:56;;;;;;;28.10;25.08;;;5.50;99.90;;;;;;5067142;28;20953;-75
2022/01/15 14:48:23;;;;;;;25.13;22.05;;;5.50;99.90;;;;;;5063134;28;20405;-75
2022/01/15 14:50:49;;;;;;;26.55;23.75;;;5.50;99.90;;;;;;5040045;28;20455;-76
2022/01/15 14:53:15;;;;;;;26.17;22.67;;;5.40;99.90;;;;;;5058510;28;20448;-76